30MA weather

Clinton Hospital Heliport
Clinton, Massachusetts, United States

Public forecast

Using degrees Fahrenheit for public forecast. Weather courtesy of forecast.io.

METAR (pilot weather report)

Closest report is Fitchburg Municipal Airport, 8.1 nm (15.0 km) NNW. Retrieved 2019/07/20 18:52 UTC (46 minutes ago):

KFIT 201852Z AUTO 24005KT 10SM FEW049 35/22 A2977 RMK AO2 SLP077 T03500222

TAF (pilot weather forecast)

Closest forecast is Worcester Regional Airport, 12.6 nm (23.3 km) SW. Retrieved 2019/07/20 18:39 UTC (59 minutes ago):

TAF KORH 201737Z 2018/2118 27007KT P6SM FEW030 FM210000 25007KT P6SM SCT060 FM211100 26008KT P6SM FEW250 FM211600 27011G18KT P6SM FEW100